sensor_id;sensor_type;location;lat;lon;timestamp;pressure;altitude;pressure_sealevel;temperature;humidity
15568;BME280;7885;42.596;23.044;2023-08-01T00:01:02;92717.13;;;19.18;96.06
15568;BME280;7885;42.596;23.044;2023-08-01T00:03:29;92716.38;;;19.18;95.13
15568;BME280;7885;42.596;23.044;2023-08-01T00:05:55;92711.75;;;19.15;94.79
15568;BME280;7885;42.596;23.044;2023-08-01T00:08:22;92721.03;;;19.30;93.54
15568;BME280;7885;42.596;23.044;2023-08-01T00:10:50;92721.31;;;19.32;94.05
15568;BME280;7885;42.596;23.044;2023-08-01T00:13:17;92719.34;;;19.33;94.29
15568;BME280;7885;42.596;23.044;2023-08-01T00:15:44;92717.50;;;19.30;94.08
15568;BME280;7885;42.596;23.044;2023-08-01T00:18:11;92712.88;;;19.27;94.04
15568;BME280;7885;42.596;23.044;2023-08-01T00:20:37;92714.81;;;19.17;94.41
15568;BME280;7885;42.596;23.044;2023-08-01T00:23:05;92718.19;;;19.12;94.16
15568;BME280;7885;42.596;23.044;2023-08-01T00:25:31;92720.94;;;19.12;94.65
15568;BME280;7885;42.596;23.044;2023-08-01T00:28:00;92689.72;;;18.93;95.07
15568;BME280;7885;42.596;23.044;2023-08-01T00:30:26;92715.59;;;19.17;95.05
15568;BME280;7885;42.596;23.044;2023-08-01T00:32:53;92713.59;;;19.18;94.63
15568;BME280;7885;42.596;23.044;2023-08-01T00:35:20;92698.38;;;19.04;94.56
15568;BME280;7885;42.596;23.044;2023-08-01T00:37:47;92715.72;;;19.14;94.00
15568;BME280;7885;42.596;23.044;2023-08-01T00:40:13;92714.22;;;19.13;94.77
15568;BME280;7885;42.596;23.044;2023-08-01T00:42:41;92710.22;;;19.14;94.09
15568;BME280;7885;42.596;23.044;2023-08-01T00:45:11;92710.22;;;19.14;94.00
15568;BME280;7885;42.596;23.044;2023-08-01T00:47:38;92709.88;;;19.03;94.24
15568;BME280;7885;42.596;23.044;2023-08-01T00:50:05;92704.28;;;18.94;94.05
15568;BME280;7885;42.596;23.044;2023-08-01T00:52:33;92706.75;;;18.92;94.55
15568;BME280;7885;42.596;23.044;2023-08-01T00:55:00;92709.78;;;18.85;94.93
15568;BME280;7885;42.596;23.044;2023-08-01T00:57:27;92700.56;;;18.79;95.32
15568;BME280;7885;42.596;23.044;2023-08-01T00:59:53;92706.94;;;18.76;95.44
15568;BME280;7885;42.596;23.044;2023-08-01T01:02:22;92675.31;;;18.58;94.60
15568;BME280;7885;42.596;23.044;2023-08-01T01:04:49;92700.81;;;18.72;94.97
15568;BME280;7885;42.596;23.044;2023-08-01T01:07:16;92681.44;;;18.62;93.94
15568;BME280;7885;42.596;23.044;2023-08-01T01:09:43;92696.75;;;18.54;94.18
15568;BME280;7885;42.596;23.044;2023-08-01T01:12:10;92684.59;;;18.30;95.65
15568;BME280;7885;42.596;23.044;2023-08-01T01:14:37;92701.44;;;18.32;95.08
15568;BME280;7885;42.596;23.044;2023-08-01T01:17:04;92670.88;;;18.17;96.45
15568;BME280;7885;42.596;23.044;2023-08-01T01:19:32;92684.53;;;18.21;96.51
15568;BME280;7885;42.596;23.044;2023-08-01T01:22:02;92690.03;;;18.21;96.63
15568;BME280;7885;42.596;23.044;2023-08-01T01:24:31;92655.44;;;17.98;96.18
15568;BME280;7885;42.596;23.044;2023-08-01T01:26:59;92677.09;;;18.09;96.87
15568;BME280;7885;42.596;23.044;2023-08-01T01:29:27;92642.59;;;17.83;96.22
15568;BME280;7885;42.596;23.044;2023-08-01T01:31:55;92678.19;;;18.11;96.60
15568;BME280;7885;42.596;23.044;2023-08-01T01:34:23;92676.03;;;17.94;96.93
15568;BME280;7885;42.596;23.044;2023-08-01T01:36:50;92686.75;;;17.92;96.86
15568;BME280;7885;42.596;23.044;2023-08-01T01:39:18;92688.41;;;17.89;98.74
15568;BME280;7885;42.596;23.044;2023-08-01T01:41:45;92687.19;;;17.90;98.35
15568;BME280;7885;42.596;23.044;2023-08-01T01:44:12;92681.44;;;17.97;98.95
15568;BME280;7885;42.596;23.044;2023-08-01T01:46:39;92670.53;;;17.94;96.84
15568;BME280;7885;42.596;23.044;2023-08-01T01:49:06;92679.38;;;17.89;96.57
15568;BME280;7885;42.596;23.044;2023-08-01T01:51:32;92685.31;;;17.87;95.93
15568;BME280;7885;42.596;23.044;2023-08-01T01:53:59;92690.63;;;17.82;96.00
15568;BME280;7885;42.596;23.044;2023-08-01T01:56:27;92688.44;;;17.77;96.06
15568;BME280;7885;42.596;23.044;2023-08-01T01:58:55;92679.88;;;17.75;97.77
15568;BME280;7885;42.596;23.044;2023-08-01T02:01:21;92673.94;;;17.63;97.47
15568;BME280;7885;42.596;23.044;2023-08-01T02:03:48;92681.06;;;17.74;97.45
15568;BME280;7885;42.596;23.044;2023-08-01T02:06:15;92688.69;;;17.70;97.90
15568;BME280;7885;42.596;23.044;2023-08-01T02:08:42;92675.03;;;17.53;98.68
15568;BME280;7885;42.596;23.044;2023-08-01T02:11:08;92681.22;;;17.57;98.49
15568;BME280;7885;42.596;23.044;2023-08-01T02:13:37;92686.94;;;17.50;97.64
15568;BME280;7885;42.596;23.044;2023-08-01T02:16:04;92684.06;;;17.41;97.48
15568;BME280;7885;42.596;23.044;2023-08-01T02:18:30;92677.06;;;17.40;97.21
15568;BME280;7885;42.596;23.044;2023-08-01T02:20:57;92684.06;;;17.41;96.75
15568;BME280;7885;42.596;23.044;2023-08-01T02:23:24;92681.44;;;17.38;98.63
15568;BME280;7885;42.596;23.044;2023-08-01T02:25:51;92679.47;;;17.38;100.00
15568;BME280;7885;42.596;23.044;2023-08-01T02:28:18;92686.19;;;17.37;100.00
15568;BME280;7885;42.596;23.044;2023-08-01T02:30:46;92689.19;;;17.30;97.45
15568;BME280;7885;42.596;23.044;2023-08-01T02:33:13;92679.94;;;17.37;100.00
15568;BME280;7885;42.596;23.044;2023-08-01T02:35:39;92676.16;;;17.43;100.00
15568;BME280;7885;42.596;23.044;2023-08-01T02:38:06;92675.94;;;17.50;100.00
15568;BME280;7885;42.596;23.044;2023-08-01T02:40:33;92649.00;;;17.33;99.07
15568;BME280;7885;42.596;23.044;2023-08-01T02:43:00;92681.88;;;17.49;96.18
15568;BME280;7885;42.596;23.044;2023-08-01T02:45:26;92682.97;;;17.51;95.84
15568;BME280;7885;42.596;23.044;2023-08-01T02:47:54;92675.09;;;17.41;96.78
15568;BME280;7885;42.596;23.044;2023-08-01T02:50:21;92667.69;;;17.38;97.79
15568;BME280;7885;42.596;23.044;2023-08-01T02:52:48;92674.31;;;17.40;98.12
15568;BME280;7885;42.596;23.044;2023-08-01T02:55:15;92667.81;;;17.34;98.26
15568;BME280;7885;42.596;23.044;2023-08-01T02:57:41;92661.44;;;17.37;97.16
15568;BME280;7885;42.596;23.044;2023-08-01T03:00:09;92678.19;;;17.30;96.07
15568;BME280;7885;42.596;23.044;2023-08-01T03:02:37;92683.69;;;17.30;97.22
15568;BME280;7885;42.596;23.044;2023-08-01T03:05:06;92690.69;;;17.31;98.75
15568;BME280;7885;42.596;23.044;2023-08-01T03:07:33;92693.78;;;17.33;99.44
15568;BME280;7885;42.596;23.044;2023-08-01T03:10:00;92703.91;;;17.36;100.00
15568;BME280;7885;42.596;23.044;2023-08-01T03:12:26;92703.91;;;17.36;98.80
15568;BME280;7885;42.596;23.044;2023-08-01T03:14:53;92694.69;;;17.30;100.00
15568;BME280;7885;42.596;23.044;2023-08-01T03:17:20;92691.34;;;17.35;100.00
15568;BME280;7885;42.596;23.044;2023-08-01T03:19:47;92690.81;;;17.28;100.00
15568;BME280;7885;42.596;23.044;2023-08-01T03:22:15;92695.31;;;17.34;99.78
15568;BME280;7885;42.596;23.044;2023-08-01T03:24:43;92701.16;;;17.36;98.76
15568;BME280;7885;42.596;23.044;2023-08-01T03:27:09;92700.81;;;17.34;96.81
15568;BME280;7885;42.596;23.044;2023-08-01T03:29:36;92699.19;;;17.24;96.93
15568;BME280;7885;42.596;23.044;2023-08-01T03:32:04;92702.38;;;17.23;96.34
15568;BME280;7885;42.596;23.044;2023-08-01T03:34:31;92698.75;;;17.13;95.44
15568;BME280;7885;42.596;23.044;2023-08-01T03:36:57;92707.22;;;17.06;95.68
15568;BME280;7885;42.596;23.044;2023-08-01T03:39:25;92702.41;;;17.10;97.34
15568;BME280;7885;42.596;23.044;2023-08-01T03:41:52;92688.09;;;17.02;96.94
15568;BME280;7885;42.596;23.044;2023-08-01T03:44:19;92665.34;;;16.89;96.54
15568;BME280;7885;42.596;23.044;2023-08-01T03:46:46;92700.84;;;17.09;96.96
15568;BME280;7885;42.596;23.044;2023-08-01T03:49:13;92691.06;;;17.08;96.38
15568;BME280;7885;42.596;23.044;2023-08-01T03:51:39;92703.50;;;17.12;96.70
15568;BME280;7885;42.596;23.044;2023-08-01T03:54:06;92710.19;;;17.11;96.21
15568;BME280;7885;42.596;23.044;2023-08-01T03:56:34;92709.97;;;17.06;96.55
15568;BME280;7885;42.596;23.044;2023-08-01T03:59:01;92712.84;;;17.02;96.17
15568;BME280;7885;42.596;23.044;2023-08-01T04:01:29;92707.56;;;16.95;96.11
15568;BME280;7885;42.596;23.044;2023-08-01T04:03:56;92714.25;;;16.94;96.67
15568;BME280;7885;42.596;23.044;2023-08-01T04:06:23;92725.16;;;16.98;98.40
15568;BME280;7885;42.596;23.044;2023-08-01T04:08:50;92726.44;;;16.93;99.66
15568;BME280;7885;42.596;23.044;2023-08-01T04:11:17;92722.94;;;16.93;100.00
15568;BME280;7885;42.596;23.044;2023-08-01T04:13:45;92720.19;;;16.93;100.00
15568;BME280;7885;42.596;23.044;2023-08-01T04:16:12;92721.72;;;16.94;100.00
15568;BME280;7885;42.596;23.044;2023-08-01T04:18:39;92712.28;;;16.95;100.00
15568;BME280;7885;42.596;23.044;2023-08-01T04:21:08;92724.06;;;17.08;100.00
15568;BME280;7885;42.596;23.044;2023-08-01T04:23:35;92718.66;;;17.17;100.00
15568;BME280;7885;42.596;23.044;2023-08-01T04:26:02;92712.28;;;17.20;100.00
15568;BME280;7885;42.596;23.044;2023-08-01T04:28:31;92714.25;;;17.32;100.00
15568;BME280;7885;42.596;23.044;2023-08-01T04:30:59;92712.94;;;17.37;100.00
15568;BME280;7885;42.596;23.044;2023-08-01T04:33:26;92714.69;;;17.43;100.00
15568;BME280;7885;42.596;23.044;2023-08-01T04:35:53;92708.50;;;17.52;100.00
15568;BME280;7885;42.596;23.044;2023-08-01T04:38:20;92705.41;;;17.62;100.00
15568;BME280;7885;42.596;23.044;2023-08-01T04:40:47;92686.75;;;17.57;100.00
15568;BME280;7885;42.596;23.044;2023-08-01T04:43:14;92708.03;;;17.79;100.00
15568;BME280;7885;42.596;23.044;2023-08-01T04:45:40;92711.84;;;17.94;100.00
15568;BME280;7885;42.596;23.044;2023-08-01T04:48:08;92708.84;;;18.01;100.00
15568;BME280;7885;42.596;23.044;2023-08-01T04:50:35;92706.94;;;18.10;99.71
15568;BME280;7885;42.596;23.044;2023-08-01T04:53:02;92701.94;;;18.18;99.42
15568;BME280;7885;42.596;23.044;2023-08-01T04:55:29;92707.19;;;18.25;99.95
15568;BME280;7885;42.596;23.044;2023-08-01T04:57:56;92694.25;;;18.35;99.37
15568;BME280;7885;42.596;23.044;2023-08-01T05:00:22;92700.53;;;18.35;99.23
15568;BME280;7885;42.596;23.044;2023-08-01T05:02:49;92694.34;;;18.44;99.66
15568;BME280;7885;42.596;23.044;2023-08-01T05:05:17;92703.13;;;18.51;99.93
15568;BME280;7885;42.596;23.044;2023-08-01T05:07:44;92684.16;;;18.53;99.44
15568;BME280;7885;42.596;23.044;2023-08-01T05:10:11;92708.38;;;18.80;98.55
15568;BME280;7885;42.596;23.044;2023-08-01T05:12:38;92704.91;;;18.89;96.51
15568;BME280;7885;42.596;23.044;2023-08-01T05:15:05;92704.91;;;18.89;95.85
15568;BME280;7885;42.596;23.044;2023-08-01T05:17:32;92708.09;;;18.87;95.77
15568;BME280;7885;42.596;23.044;2023-08-01T05:19:59;92703.63;;;18.81;95.97
15568;BME280;7885;42.596;23.044;2023-08-01T05:22:27;92713.97;;;18.98;96.48
15568;BME280;7885;42.596;23.044;2023-08-01T05:24:54;92717.53;;;19.08;96.09
15568;BME280;7885;42.596;23.044;2023-08-01T05:27:20;92718.94;;;19.12;95.02
15568;BME280;7885;42.596;23.044;2023-08-01T05:29:47;92713.03;;;19.23;94.05
15568;BME280;7885;42.596;23.044;2023-08-01T05:32:14;92707.03;;;19.25;94.13
15568;BME280;7885;42.596;23.044;2023-08-01T05:34:41;92718.47;;;19.45;94.83
15568;BME280;7885;42.596;23.044;2023-08-01T05:37:07;92712.53;;;19.55;95.36
15568;BME280;7885;42.596;23.044;2023-08-01T05:39:36;92707.34;;;19.66;94.13
15568;BME280;7885;42.596;23.044;2023-08-01T05:42:03;92693.41;;;19.61;93.10
15568;BME280;7885;42.596;23.044;2023-08-01T05:44:33;92713.84;;;19.91;91.97
15568;BME280;7885;42.596;23.044;2023-08-01T05:47:00;92704.16;;;19.86;90.69
15568;BME280;7885;42.596;23.044;2023-08-01T05:49:27;92713.88;;;20.09;90.75
15568;BME280;7885;42.596;23.044;2023-08-01T05:51:55;92711.72;;;20.22;90.40
15568;BME280;7885;42.596;23.044;2023-08-01T05:54:21;92692.69;;;20.15;90.28
15568;BME280;7885;42.596;23.044;2023-08-01T05:56:50;92714.84;;;20.33;89.93
15568;BME280;7885;42.596;23.044;2023-08-01T05:59:16;92715.44;;;20.37;87.58
15568;BME280;7885;42.596;23.044;2023-08-01T06:01:43;92708.69;;;20.38;87.57
15568;BME280;7885;42.596;23.044;2023-08-01T06:04:10;92710.22;;;20.48;88.14
15568;BME280;7885;42.596;23.044;2023-08-01T06:06:37;92716.50;;;20.49;87.86
15568;BME280;7885;42.596;23.044;2023-08-01T06:09:04;92719.28;;;20.58;87.36
15568;BME280;7885;42.596;23.044;2023-08-01T06:11:30;92716.34;;;20.71;88.62
15568;BME280;7885;42.596;23.044;2023-08-01T06:14:00;92724.78;;;20.76;87.56
15568;BME280;7885;42.596;23.044;2023-08-01T06:16:27;92723.25;;;20.75;85.56
15568;BME280;7885;42.596;23.044;2023-08-01T06:18:53;92703.44;;;20.67;84.09
15568;BME280;7885;42.596;23.044;2023-08-01T06:21:20;92718.16;;;20.83;83.93
15568;BME280;7885;42.596;23.044;2023-08-01T06:23:47;92718.00;;;20.86;80.82
15568;BME280;7885;42.596;23.044;2023-08-01T06:26:14;92717.50;;;20.97;81.80
15568;BME280;7885;42.596;23.044;2023-08-01T06:28:41;92703.66;;;20.97;79.68
15568;BME280;7885;42.596;23.044;2023-08-01T06:31:09;92721.81;;;21.16;80.89
15568;BME280;7885;42.596;23.044;2023-08-01T06:33:36;92708.91;;;21.13;80.67
15568;BME280;7885;42.596;23.044;2023-08-01T06:36:04;92695.34;;;21.15;81.89
15568;BME280;7885;42.596;23.044;2023-08-01T06:38:30;92715.59;;;21.30;77.35
15568;BME280;7885;42.596;23.044;2023-08-01T06:40:57;92698.69;;;21.28;77.09
15568;BME280;7885;42.596;23.044;2023-08-01T06:43:24;92707.09;;;21.43;76.75
15568;BME280;7885;42.596;23.044;2023-08-01T06:45:51;92713.81;;;21.51;73.60
15568;BME280;7885;42.596;23.044;2023-08-01T06:48:19;92690.94;;;21.41;74.18
15568;BME280;7885;42.596;23.044;2023-08-01T06:50:46;92693.16;;;21.61;77.51
15568;BME280;7885;42.596;23.044;2023-08-01T06:53:12;92688.97;;;21.65;76.87
15568;BME280;7885;42.596;23.044;2023-08-01T06:55:39;92708.84;;;21.88;74.23
15568;BME280;7885;42.596;23.044;2023-08-01T06:58:06;92691.63;;;21.84;72.23
15568;BME280;7885;42.596;23.044;2023-08-01T07:00:33;92700.81;;;21.99;71.11
15568;BME280;7885;42.596;23.044;2023-08-01T07:02:59;92677.47;;;21.91;72.51
15568;BME280;7885;42.596;23.044;2023-08-01T07:05:27;92702.38;;;22.14;71.79
15568;BME280;7885;42.596;23.044;2023-08-01T07:07:54;92674.84;;;22.11;72.81
15568;BME280;7885;42.596;23.044;2023-08-01T07:10:21;92686.28;;;22.28;72.97
15568;BME280;7885;42.596;23.044;2023-08-01T07:12:48;92695.13;;;22.41;71.81
15568;BME280;7885;42.596;23.044;2023-08-01T07:15:15;92691.22;;;22.47;70.90
15568;BME280;7885;42.596;23.044;2023-08-01T07:17:42;92686.22;;;22.51;71.27
15568;BME280;7885;42.596;23.044;2023-08-01T07:20:09;92684.94;;;22.61;74.12
15568;BME280;7885;42.596;23.044;2023-08-01T07:22:37;92680.53;;;22.70;73.42
15568;BME280;7885;42.596;23.044;2023-08-01T07:25:05;92682.66;;;22.89;73.18
15568;BME280;7885;42.596;23.044;2023-08-01T07:27:32;92688.69;;;22.88;70.37
15568;BME280;7885;42.596;23.044;2023-08-01T07:29:59;92690.88;;;22.84;70.55
15568;BME280;7885;42.596;23.044;2023-08-01T07:32:26;92682.09;;;22.85;70.65
15568;BME280;7885;42.596;23.044;2023-08-01T07:34:52;92691.66;;;22.99;70.96
15568;BME280;7885;42.596;23.044;2023-08-01T07:37:19;92673.09;;;23.05;72.50
15568;BME280;7885;42.596;23.044;2023-08-01T07:39:49;92683.03;;;23.26;69.45
15568;BME280;7885;42.596;23.044;2023-08-01T07:42:16;92680.16;;;23.35;69.92
15568;BME280;7885;42.596;23.044;2023-08-01T07:44:43;92680.72;;;23.25;68.19
15568;BME280;7885;42.596;23.044;2023-08-01T07:47:09;92680.34;;;23.32;67.50
15568;BME280;7885;42.596;23.044;2023-08-01T07:49:36;92681.38;;;23.34;67.92
15568;BME280;7885;42.596;23.044;2023-08-01T07:52:03;92675.16;;;23.39;68.29
15568;BME280;7885;42.596;23.044;2023-08-01T07:54:30;92674.78;;;23.46;69.21
15568;BME280;7885;42.596;23.044;2023-08-01T07:56:59;92631.19;;;23.38;70.34
15568;BME280;7885;42.596;23.044;2023-08-01T07:59:25;92663.59;;;23.76;69.22
15568;BME280;7885;42.596;23.044;2023-08-01T08:01:52;92635.81;;;23.76;69.84
15568;BME280;7885;42.596;23.044;2023-08-01T08:04:19;92652.38;;;24.05;67.57
15568;BME280;7885;42.596;23.044;2023-08-01T08:06:46;92659.28;;;24.30;68.82
15568;BME280;7885;42.596;23.044;2023-08-01T08:09:12;92666.00;;;24.43;67.07
15568;BME280;7885;42.596;23.044;2023-08-01T08:11:39;92651.53;;;24.39;64.79
15568;BME280;7885;42.596;23.044;2023-08-01T08:14:07;92649.75;;;24.36;64.63
15568;BME280;7885;42.596;23.044;2023-08-01T08:16:34;92629.09;;;24.23;64.55
15568;BME280;7885;42.596;23.044;2023-08-01T08:19:01;92650.94;;;24.55;65.97
15568;BME280;7885;42.596;23.044;2023-08-01T08:21:28;92661.63;;;24.83;66.24
15568;BME280;7885;42.596;23.044;2023-08-01T08:23:54;92648.56;;;24.89;63.36
15568;BME280;7885;42.596;23.044;2023-08-01T08:26:21;92654.94;;;24.95;63.56
15568;BME280;7885;42.596;23.044;2023-08-01T08:28:49;92660.06;;;25.02;63.31
15568;BME280;7885;42.596;23.044;2023-08-01T08:31:17;92647.25;;;25.16;61.65
15568;BME280;7885;42.596;23.044;2023-08-01T08:33:44;92650.19;;;25.32;62.89
15568;BME280;7885;42.596;23.044;2023-08-01T08:36:10;92638.69;;;25.19;58.27
15568;BME280;7885;42.596;23.044;2023-08-01T08:38:37;92639.06;;;25.06;57.95
15568;BME280;7885;42.596;23.044;2023-08-01T08:41:08;92644.34;;;24.99;59.16
15568;BME280;7885;42.596;23.044;2023-08-01T08:43:36;92629.38;;;24.96;56.19
15568;BME280;7885;42.596;23.044;2023-08-01T08:46:04;92618.84;;;25.06;55.99
15568;BME280;7885;42.596;23.044;2023-08-01T08:48:32;92633.91;;;25.25;56.69
15568;BME280;7885;42.596;23.044;2023-08-01T08:51:01;92632.94;;;25.28;54.59
15568;BME280;7885;42.596;23.044;2023-08-01T08:53:30;92618.28;;;25.33;54.88
15568;BME280;7885;42.596;23.044;2023-08-01T08:55:58;92615.59;;;25.50;51.33
15568;BME280;7885;42.596;23.044;2023-08-01T08:58:25;92636.09;;;25.78;53.26
15568;BME280;7885;42.596;23.044;2023-08-01T09:00:53;92623.97;;;25.87;50.66
15568;BME280;7885;42.596;23.044;2023-08-01T09:03:19;92626.28;;;25.94;53.45
15568;BME280;7885;42.596;23.044;2023-08-01T09:05:50;92616.75;;;25.63;52.43
15568;BME280;7885;42.596;23.044;2023-08-01T09:08:19;92614.09;;;25.86;52.64
15568;BME280;7885;42.596;23.044;2023-08-01T09:10:46;92610.91;;;26.09;52.39
15568;BME280;7885;42.596;23.044;2023-08-01T09:13:13;92619.56;;;26.17;51.29
15568;BME280;7885;42.596;23.044;2023-08-01T09:15:41;92608.53;;;25.97;50.26
15568;BME280;7885;42.596;23.044;2023-08-01T09:18:09;92603.25;;;25.99;51.94
15568;BME280;7885;42.596;23.044;2023-08-01T09:20:48;92599.97;;;26.06;51.62
15568;BME280;7885;42.596;23.044;2023-08-01T09:23:16;92613.00;;;26.26;51.06
15568;BME280;7885;42.596;23.044;2023-08-01T09:25:43;92607.47;;;26.48;46.67
15568;BME280;7885;42.596;23.044;2023-08-01T09:28:18;92604.03;;;26.75;43.90
15568;BME280;7885;42.596;23.044;2023-08-01T09:30:46;92600.00;;;26.87;42.91
15568;BME280;7885;42.596;23.044;2023-08-01T09:33:13;92599.75;;;27.13;43.81
15568;BME280;7885;42.596;23.044;2023-08-01T09:35:40;92597.22;;;27.26;44.52
15568;BME280;7885;42.596;23.044;2023-08-01T09:38:12;92595.69;;;27.25;40.26
15568;BME280;7885;42.596;23.044;2023-08-01T09:40:39;92594.91;;;26.97;41.30
15568;BME280;7885;42.596;23.044;2023-08-01T09:43:06;92567.75;;;27.03;42.92
15568;BME280;7885;42.596;23.044;2023-08-01T09:45:33;92594.41;;;27.37;40.66
15568;BME280;7885;42.596;23.044;2023-08-01T09:48:01;92588.84;;;27.54;41.33
15568;BME280;7885;42.596;23.044;2023-08-01T09:50:28;92582.19;;;27.68;42.69
15568;BME280;7885;42.596;23.044;2023-08-01T09:52:55;92592.09;;;27.41;37.91
15568;BME280;7885;42.596;23.044;2023-08-01T09:55:30;92587.03;;;27.18;38.93
15568;BME280;7885;42.596;23.044;2023-08-01T09:57:59;92577.91;;;27.28;39.52
15568;BME280;7885;42.596;23.044;2023-08-01T10:00:26;92569.25;;;27.48;38.81
15568;BME280;7885;42.596;23.044;2023-08-01T10:02:55;92578.78;;;27.97;38.94
15568;BME280;7885;42.596;23.044;2023-08-01T10:05:21;92567.22;;;28.34;41.56
15568;BME280;7885;42.596;23.044;2023-08-01T10:07:51;92577.13;;;28.41;37.96
15568;BME280;7885;42.596;23.044;2023-08-01T10:10:20;92572.03;;;28.39;36.63
15568;BME280;7885;42.596;23.044;2023-08-01T10:12:49;92556.69;;;28.51;37.10
15568;BME280;7885;42.596;23.044;2023-08-01T10:15:17;92569.63;;;28.60;35.45
15568;BME280;7885;42.596;23.044;2023-08-01T10:17:44;92565.13;;;28.46;36.49
15568;BME280;7885;42.596;23.044;2023-08-01T10:20:12;92556.69;;;28.51;36.14
15568;BME280;7885;42.596;23.044;2023-08-01T10:22:39;92563.03;;;28.57;33.87
15568;BME280;7885;42.596;23.044;2023-08-01T10:25:08;92569.59;;;28.71;35.57
15568;BME280;7885;42.596;23.044;2023-08-01T10:27:35;92553.19;;;28.86;36.66
15568;BME280;7885;42.596;23.044;2023-08-01T10:30:04;92555.75;;;28.84;36.05
15568;BME280;7885;42.596;23.044;2023-08-01T10:32:33;92548.38;;;28.35;38.77
15568;BME280;7885;42.596;23.044;2023-08-01T10:34:59;92547.75;;;28.01;39.38
15568;BME280;7885;42.596;23.044;2023-08-01T10:37:26;92514.22;;;27.90;39.79
15568;BME280;7885;42.596;23.044;2023-08-01T10:39:57;92536.41;;;28.34;38.15
15568;BME280;7885;42.596;23.044;2023-08-01T10:42:24;92533.13;;;28.77;35.72
15568;BME280;7885;42.596;23.044;2023-08-01T10:44:51;92534.25;;;28.98;34.48
15568;BME280;7885;42.596;23.044;2023-08-01T10:47:26;92523.19;;;29.11;32.90
15568;BME280;7885;42.596;23.044;2023-08-01T10:49:53;92530.78;;;29.16;32.77
15568;BME280;7885;42.596;23.044;2023-08-01T10:52:22;92514.47;;;29.20;30.56
15568;BME280;7885;42.596;23.044;2023-08-01T10:54:56;92515.31;;;29.39;31.15
15568;BME280;7885;42.596;23.044;2023-08-01T10:57:24;92511.34;;;29.53;33.78
15568;BME280;7885;42.596;23.044;2023-08-01T10:59:51;92500.03;;;29.89;32.84
15568;BME280;7885;42.596;23.044;2023-08-01T11:02:23;92506.47;;;30.21;31.88
15568;BME280;7885;42.596;23.044;2023-08-01T11:04:58;92499.44;;;29.96;34.29
15568;BME280;7885;42.596;23.044;2023-08-01T11:07:26;92509.13;;;29.46;34.04
15568;BME280;7885;42.596;23.044;2023-08-01T11:10:06;92488.66;;;29.51;34.96
15568;BME280;7885;42.596;23.044;2023-08-01T11:12:35;92489.81;;;29.86;35.48
15568;BME280;7885;42.596;23.044;2023-08-01T11:15:03;92476.06;;;30.25;35.89
15568;BME280;7885;42.596;23.044;2023-08-01T11:17:31;92469.41;;;30.47;34.31
15568;BME280;7885;42.596;23.044;2023-08-01T11:20:05;92467.56;;;30.49;32.90
15568;BME280;7885;42.596;23.044;2023-08-01T11:22:32;92479.16;;;30.78;31.84
15568;BME280;7885;42.596;23.044;2023-08-01T11:24:59;92478.13;;;30.94;32.02
15568;BME280;7885;42.596;23.044;2023-08-01T11:27:26;92470.94;;;31.12;32.54
15568;BME280;7885;42.596;23.044;2023-08-01T11:29:53;92447.88;;;31.00;33.15
15568;BME280;7885;42.596;23.044;2023-08-01T11:32:20;92470.91;;;31.30;32.71
15568;BME280;7885;42.596;23.044;2023-08-01T11:34:49;92459.88;;;31.00;31.28
15568;BME280;7885;42.596;23.044;2023-08-01T11:37:18;92459.19;;;31.26;32.52
15568;BME280;7885;42.596;23.044;2023-08-01T11:39:45;92456.66;;;31.54;30.61
15568;BME280;7885;42.596;23.044;2023-08-01T11:42:15;92463.13;;;31.63;30.56
15568;BME280;7885;42.596;23.044;2023-08-01T11:44:42;92457.28;;;31.47;30.40
15568;BME280;7885;42.596;23.044;2023-08-01T11:47:11;92458.13;;;31.29;30.79
15568;BME280;7885;42.596;23.044;2023-08-01T11:49:38;92449.44;;;31.27;30.42
15568;BME280;7885;42.596;23.044;2023-08-01T11:52:06;92458.31;;;31.18;30.54
15568;BME280;7885;42.596;23.044;2023-08-01T11:54:44;92455.78;;;30.70;32.02
15568;BME280;7885;42.596;23.044;2023-08-01T11:57:11;92459.81;;;30.37;33.13
15568;BME280;7885;42.596;23.044;2023-08-01T11:59:46;92452.53;;;30.28;30.92
15568;BME280;7885;42.596;23.044;2023-08-01T12:02:21;92454.72;;;30.35;31.54
15568;BME280;7885;42.596;23.044;2023-08-01T12:04:48;92440.63;;;30.22;31.32
15568;BME280;7885;42.596;23.044;2023-08-01T12:07:15;92446.63;;;30.32;32.97
15568;BME280;7885;42.596;23.044;2023-08-01T12:09:42;92435.63;;;30.34;31.52
15568;BME280;7885;42.596;23.044;2023-08-01T12:12:10;92422.63;;;30.31;31.37
15568;BME280;7885;42.596;23.044;2023-08-01T12:14:40;92434.59;;;30.69;31.49
15568;BME280;7885;42.596;23.044;2023-08-01T12:17:07;92443.25;;;30.71;30.30
15568;BME280;7885;42.596;23.044;2023-08-01T12:19:34;92434.00;;;30.38;30.47
15568;BME280;7885;42.596;23.044;2023-08-01T12:22:00;92422.94;;;30.46;31.92
15568;BME280;7885;42.596;23.044;2023-08-01T12:24:27;92425.06;;;30.40;30.30
15568;BME280;7885;42.596;23.044;2023-08-01T12:26:54;92430.22;;;30.17;31.48
15568;BME280;7885;42.596;23.044;2023-08-01T12:29:22;92423.34;;;30.18;32.13
15568;BME280;7885;42.596;23.044;2023-08-01T12:31:49;92411.69;;;30.27;31.81
15568;BME280;7885;42.596;23.044;2023-08-01T12:34:15;92423.09;;;30.53;31.48
15568;BME280;7885;42.596;23.044;2023-08-01T12:36:42;92417.09;;;30.76;32.34
15568;BME280;7885;42.596;23.044;2023-08-01T12:39:09;92414.91;;;30.69;30.34
15568;BME280;7885;42.596;23.044;2023-08-01T12:41:36;92412.16;;;30.82;31.11
15568;BME280;7885;42.596;23.044;2023-08-01T12:44:03;92388.94;;;30.49;30.87
15568;BME280;7885;42.596;23.044;2023-08-01T12:46:31;92402.38;;;30.70;29.61
15568;BME280;7885;42.596;23.044;2023-08-01T12:48:58;92401.25;;;30.91;30.45
15568;BME280;7885;42.596;23.044;2023-08-01T12:51:25;92396.44;;;31.05;29.68
15568;BME280;7885;42.596;23.044;2023-08-01T12:53:52;92377.84;;;31.15;29.20
15568;BME280;7885;42.596;23.044;2023-08-01T12:56:18;92393.44;;;31.42;31.37
15568;BME280;7885;42.596;23.044;2023-08-01T12:58:45;92372.66;;;31.45;31.44
15568;BME280;7885;42.596;23.044;2023-08-01T13:01:12;92396.25;;;31.42;30.72